Time;durP1;ratioP1;P1;durP2;ratioP2;P2;SDS_P1;SDS_P2;PMS_P1;PMS_P2;Temp;Humidity;BMP_temperature;BMP_pressure;BME280_temperature;BME280_humidity;BME280_pressure;Samples;Min_cycle;Max_cycle;Signal;HPM_P1;HPM_P2
2022/11/22 00:01:28;;;;;;;11.23;5.35;;;;;;;5.65;100.00;99114.53;4833983;29;20715;-78
2022/11/22 00:03:54;;;;;;;13.05;4.90;;;;;;;5.68;100.00;99114.44;4820144;29;20478;-79
2022/11/22 00:06:19;;;;;;;14.10;5.10;;;;;;;5.69;100.00;99134.56;4798504;29;20035;-78
2022/11/22 00:08:45;;;;;;;10.43;5.22;;;;;;;5.69;100.00;99130.16;4835638;29;20080;-78
2022/11/22 00:11:10;;;;;;;14.77;5.15;;;;;;;5.70;100.00;99123.97;4822659;29;20493;-78
2022/11/22 00:13:36;;;;;;;11.25;4.18;;;;;;;5.67;100.00;99112.72;4823827;29;20037;-78
2022/11/22 00:16:03;;;;;;;11.48;4.50;;;;;;;5.70;100.00;99121.34;4834701;29;20088;-79
2022/11/22 00:18:29;;;;;;;9.88;4.53;;;;;;;5.72;100.00;99119.56;4782990;29;20386;-78
2022/11/22 00:20:55;;;;;;;9.18;4.80;;;;;;;5.69;100.00;99119.66;4816829;29;20038;-78
2022/11/22 00:23:21;;;;;;;13.38;4.35;;;;;;;5.73;100.00;99130.91;4838331;29;20164;-78
2022/11/22 00:25:46;;;;;;;11.02;4.72;;;;;;;5.73;100.00;99125.66;4838289;29;20038;-78
2022/11/22 00:28:12;;;;;;;11.70;4.70;;;;;;;5.75;100.00;99126.47;4810166;29;20074;-79
2022/11/22 00:30:37;;;;;;;9.65;4.50;;;;;;;5.75;100.00;99116.81;4819581;29;20428;-79
2022/11/22 00:33:03;;;;;;;10.75;4.63;;;;;;;5.76;100.00;99120.31;4834051;29;20042;-78
2022/11/22 00:35:28;;;;;;;12.90;3.95;;;;;;;5.73;100.00;99109.91;4810184;29;20046;-79
2022/11/22 00:37:54;;;;;;;12.95;4.32;;;;;;;5.71;100.00;99111.69;4809484;29;20610;-78
2022/11/22 00:40:19;;;;;;;11.38;3.97;;;;;;;5.74;100.00;99119.50;4826480;29;20049;-79
2022/11/22 00:42:45;;;;;;;6.05;3.60;;;;;;;5.73;100.00;99118.63;4809951;29;20046;-79
2022/11/22 00:45:10;;;;;;;9.40;3.90;;;;;;;5.75;100.00;99124.72;4810082;29;20514;-78
2022/11/22 00:47:36;;;;;;;14.68;4.00;;;;;;;5.75;100.00;99122.06;4824316;29;20439;-79
2022/11/22 00:50:02;;;;;;;9.50;3.72;;;;;;;5.75;100.00;99122.06;4809840;29;20050;-78
2022/11/22 00:52:28;;;;;;;10.55;3.92;;;;;;;5.76;100.00;99117.69;4826519;29;20040;-79
2022/11/22 00:54:53;;;;;;;13.63;4.13;;;;;;;5.75;100.00;99110.72;4826044;29;20049;-78
2022/11/22 00:57:19;;;;;;;10.98;3.67;;;;;;;5.73;100.00;99115.16;4795077;29;20123;-79
2022/11/22 00:59:44;;;;;;;11.43;3.90;;;;;;;5.70;100.00;99115.25;4809337;29;20046;-79
2022/11/22 01:02:10;;;;;;;9.75;3.40;;;;;;;5.72;100.00;99121.31;4794869;29;20139;-78
2022/11/22 01:04:35;;;;;;;8.77;3.65;;;;;;;5.67;100.00;99118.81;4825463;29;20145;-79
2022/11/22 01:07:01;;;;;;;6.55;3.20;;;;;;;5.66;100.00;99114.47;4809916;29;20042;-79
2022/11/22 01:09:27;;;;;;;8.55;3.33;;;;;;;5.62;100.00;99112.84;4825752;29;20053;-78
2022/11/22 01:11:52;;;;;;;11.43;3.90;;;;;;;5.58;100.00;99103.34;4794693;29;20125;-78
2022/11/22 01:14:18;;;;;;;11.30;3.50;;;;;;;5.56;100.00;99105.13;4794289;29;20041;-79
2022/11/22 01:16:44;;;;;;;11.18;3.40;;;;;;;5.55;100.00;99109.53;4824132;29;20492;-78
2022/11/22 01:19:10;;;;;;;7.97;3.42;;;;;;;5.50;100.00;99114.06;4794557;29;20045;-79
2022/11/22 01:21:35;;;;;;;7.57;3.03;;;;;;;5.48;100.00;99112.38;4809644;29;20034;-78
2022/11/22 01:24:01;;;;;;;9.02;3.25;;;;;;;5.34;100.00;99100.53;4809271;29;20065;-78
2022/11/22 01:26:26;;;;;;;9.93;3.50;;;;;;;5.45;100.00;99121.22;4818669;29;20113;-78
2022/11/22 01:28:52;;;;;;;7.85;2.90;;;;;;;5.43;100.00;99132.66;4807169;29;20856;-79
2022/11/22 01:31:17;;;;;;;14.90;4.30;;;;;;;5.41;100.00;99130.06;4809530;29;20091;-78
2022/11/22 01:33:43;;;;;;;8.50;3.08;;;;;;;5.38;100.00;99123.13;4794348;29;20038;-78
2022/11/22 01:36:08;;;;;;;14.23;3.35;;;;;;;5.37;100.00;99116.19;4809274;29;20109;-78
2022/11/22 01:38:34;;;;;;;11.68;3.40;;;;;;;5.37;100.00;99128.47;4809268;29;20046;-78
2022/11/22 01:40:59;;;;;;;8.05;3.25;;;;;;;5.36;100.00;99124.94;4828804;29;20532;-77
2022/11/22 01:43:27;;;;;;;14.75;3.40;;;;;;;5.34;100.00;99124.16;4832314;29;20085;-78
2022/11/22 01:45:57;;;;;;;10.10;3.60;;;;;;;5.33;100.00;99132.06;4831884;29;20483;-79
2022/11/22 01:48:52;;;;;;;7.78;2.92;;;;;;;5.30;100.00;99138.25;4823907;29;20077;-78
2022/11/22 01:51:20;;;;;;;11.60;3.70;;;;;;;5.27;100.00;99137.50;4800960;29;20046;-78
2022/11/22 01:53:45;;;;;;;9.77;3.13;;;;;;;5.23;100.00;99138.47;4808847;29;20113;-78
2022/11/22 01:56:15;;;;;;;14.88;3.10;;;;;;;5.23;100.00;99138.47;4808889;29;20113;-78
2022/11/22 01:58:44;;;;;;;10.38;3.50;;;;;;;5.21;100.00;99145.50;4825035;29;20053;-78
2022/11/22 02:01:10;;;;;;;12.23;3.25;;;;;;;5.20;100.00;99149.91;4808808;29;20041;-78
2022/11/22 02:03:38;;;;;;;17.35;3.10;;;;;;;5.18;100.00;99149.94;4808616;29;20034;-78
2022/11/22 02:06:05;;;;;;;11.85;3.03;;;;;;;5.16;100.00;99154.38;4808639;29;20038;-78
2022/11/22 02:08:52;;;;;;;14.27;3.13;;;;;;;5.14;100.00;99143.06;4824859;29;20034;-78
2022/11/22 02:11:19;;;;;;;11.75;3.00;;;;;;;5.17;100.00;99153.47;4824763;29;20392;-78
2022/11/22 02:13:44;;;;;;;16.63;3.13;;;;;;;5.12;100.00;99147.50;4793430;29;20448;-78
2022/11/22 02:16:11;;;;;;;9.57;2.83;;;;;;;5.15;100.00;99154.41;4790801;29;20051;-78
2022/11/22 02:18:37;;;;;;;15.43;3.22;;;;;;;5.11;100.00;99158.03;4778537;29;20458;-78
2022/11/22 02:21:03;;;;;;;17.77;3.08;;;;;;;5.17;100.00;99163.97;4778339;29;20058;-78
2022/11/22 02:23:41;;;;;;;16.88;3.10;;;;;;;5.12;100.00;99158.00;4824609;29;20437;-78
2022/11/22 02:26:06;;;;;;;21.70;3.60;;;;;;;5.08;100.00;99152.88;4824717;29;20547;-78
2022/11/22 02:28:37;;;;;;;14.77;3.80;;;;;;;5.10;100.00;99154.53;4824624;29;20046;-78
2022/11/22 02:31:02;;;;;;;19.67;4.25;;;;;;;5.04;100.00;99159.94;4824767;29;20130;-79
2022/11/22 02:33:28;;;;;;;19.23;3.17;;;;;;;5.06;100.00;99157.28;4808164;29;20517;-78
2022/11/22 02:35:54;;;;;;;14.32;2.72;;;;;;;5.02;100.00;99150.38;4807960;29;20122;-78
2022/11/22 02:38:23;;;;;;;18.25;2.70;;;;;;;5.01;100.00;99161.78;4808301;29;20053;-78
2022/11/22 02:40:53;;;;;;;12.95;2.47;;;;;;;5.06;100.00;99159.91;4807919;29;20124;-78
2022/11/22 02:43:22;;;;;;;14.82;2.63;;;;;;;4.99;100.00;99168.84;4824425;29;20046;-78
2022/11/22 02:45:47;;;;;;;18.05;3.35;;;;;;;4.99;100.00;99164.44;4824415;29;20054;-78
2022/11/22 02:48:16;;;;;;;16.77;3.30;;;;;;;4.94;100.00;99164.56;4806558;29;20085;-78
2022/11/22 02:50:42;;;;;;;11.88;3.10;;;;;;;4.96;100.00;99170.63;4824184;29;20055;-78
2022/11/22 02:53:08;;;;;;;14.10;2.55;;;;;;;4.98;100.00;99173.22;4789801;29;20058;-78
2022/11/22 02:55:34;;;;;;;16.33;3.03;;;;;;;4.90;100.00;99173.44;4807909;29;20043;-78
2022/11/22 02:58:00;;;;;;;13.75;2.70;;;;;;;4.92;100.00;99170.75;4807940;29;20046;-78
2022/11/22 03:00:26;;;;;;;15.32;3.13;;;;;;;4.90;100.00;99189.16;4824185;29;20440;-78
2022/11/22 03:02:51;;;;;;;12.32;2.60;;;;;;;4.88;100.00;99184.84;4823241;29;20050;-78
2022/11/22 03:05:17;;;;;;;19.00;2.92;;;;;;;4.84;100.00;99181.44;4809517;29;20518;-78
2022/11/22 03:07:42;;;;;;;15.88;2.25;;;;;;;4.87;100.00;99180.50;4823940;29;20086;-78
2022/11/22 03:10:09;;;;;;;13.68;2.80;;;;;;;4.80;100.00;99174.56;4824629;29;20038;-84
2022/11/22 03:12:34;;;;;;;17.17;3.15;;;;;;;4.81;100.00;99175.41;4808122;29;20072;-78
2022/11/22 03:15:00;;;;;;;16.55;3.20;;;;;;;4.78;100.00;99186.00;4823738;29;20424;-78
2022/11/22 03:17:25;;;;;;;10.40;3.00;;;;;;;4.75;100.00;99176.44;4791663;29;20050;-78
2022/11/22 03:19:50;;;;;;;17.23;2.83;;;;;;;4.71;100.00;99182.66;4823648;29;20079;-78
2022/11/22 03:22:16;;;;;;;16.52;3.15;;;;;;;4.70;100.00;99196.66;4807674;29;20467;-78
2022/11/22 03:24:41;;;;;;;24.40;4.20;;;;;;;4.64;100.00;99194.19;4823631;29;20118;-78
2022/11/22 03:27:09;;;;;;;19.77;4.05;;;;;;;4.61;100.00;99194.25;4802818;29;20452;-78
2022/11/22 03:29:34;;;;;;;18.58;3.65;;;;;;;4.60;100.00;99198.66;4815040;29;20134;-78
2022/11/22 03:32:00;;;;;;;22.05;4.55;;;;;;;4.59;100.00;99204.78;4823634;29;20187;-78
2022/11/22 03:34:25;;;;;;;18.35;4.10;;;;;;;4.56;100.00;99185.66;4823533;29;20045;-78
2022/11/22 03:36:51;;;;;;;18.10;3.05;;;;;;;4.55;100.00;99200.53;4791891;29;20117;-78
2022/11/22 03:39:16;;;;;;;16.58;3.33;;;;;;;4.53;100.00;99202.31;4805633;29;20053;-78
2022/11/22 03:41:42;;;;;;;11.30;3.03;;;;;;;4.53;100.00;99204.94;4823491;29;20030;-78
2022/11/22 03:44:07;;;;;;;14.10;3.17;;;;;;;4.44;100.00;99202.53;4791695;29;20070;-78
2022/11/22 03:46:33;;;;;;;19.65;3.38;;;;;;;4.45;100.00;99201.59;4806104;29;20104;-78
2022/11/22 03:48:58;;;;;;;8.35;2.40;;;;;;;4.41;100.00;99202.59;4823926;29;20041;-78
2022/11/22 03:51:25;;;;;;;16.52;3.45;;;;;;;4.37;100.00;99206.16;4807554;29;20046;-78
2022/11/22 03:53:51;;;;;;;16.08;2.80;;;;;;;4.34;100.00;99214.13;4807365;29;20526;-78
2022/11/22 03:56:16;;;;;;;9.13;2.30;;;;;;;4.30;100.00;99210.69;4807001;29;20063;-78
2022/11/22 03:58:41;;;;;;;14.75;2.90;;;;;;;4.26;100.00;99203.81;4823339;29;20500;-78
2022/11/22 04:01:07;;;;;;;13.77;2.83;;;;;;;4.27;100.00;99216.00;4806770;29;20034;-78
2022/11/22 04:03:32;;;;;;;14.43;2.65;;;;;;;4.20;100.00;99220.50;4806819;29;20406;-78
2022/11/22 04:05:58;;;;;;;16.45;2.67;;;;;;;4.19;100.00;99210.94;4824046;29;20041;-78
2022/11/22 04:08:23;;;;;;;13.73;2.80;;;;;;;4.18;100.00;99216.19;4820097;29;20041;-78
2022/11/22 04:10:50;;;;;;;9.80;2.45;;;;;;;4.18;100.00;99213.56;4808275;29;20038;-78
2022/11/22 04:13:16;;;;;;;17.48;3.28;;;;;;;4.14;100.00;99211.94;4835419;29;20026;-78
2022/11/22 04:15:41;;;;;;;13.25;2.92;;;;;;;4.12;100.00;99218.97;4822252;29;20712;-78
2022/11/22 04:18:13;;;;;;;16.70;2.67;;;;;;;4.09;100.00;99228.59;4833169;29;20483;-78
2022/11/22 04:23:25;;;;;;;15.02;3.28;;;;;;;4.00;100.00;99236.66;4835512;29;20466;-79
2022/11/22 04:25:53;;;;;;;11.27;2.63;;;;;;;4.00;100.00;99243.66;4839074;29;20026;-78
2022/11/22 04:28:23;;;;;;;17.75;3.35;;;;;;;3.99;100.00;99239.31;4839873;29;20117;-79
2022/11/22 04:33:35;;;;;;;8.32;2.63;;;;;;;3.94;100.00;99241.19;4829463;29;20536;-79
2022/11/22 04:36:00;;;;;;;18.33;3.70;;;;;;;3.90;100.00;99232.50;4816525;29;20039;-78
2022/11/22 04:38:26;;;;;;;15.40;3.13;;;;;;;3.87;100.00;99233.44;4817622;29;20402;-78
2022/11/22 04:40:51;;;;;;;18.33;3.40;;;;;;;3.81;100.00;99233.56;4831780;29;20049;-77
2022/11/22 04:46:10;;;;;;;8.13;2.58;;;;;;;3.79;100.00;99244.97;4830931;29;20044;-78
2022/11/22 04:48:36;;;;;;;18.65;3.35;;;;;;;3.75;100.00;99244.16;4830281;29;20122;-78
2022/11/22 04:53:48;;;;;;;13.02;2.70;;;;;;;3.76;100.00;99243.28;4835111;29;20091;-78
2022/11/22 04:56:14;;;;;;;13.70;2.88;;;;;;;3.71;100.00;99244.22;4821442;29;20054;-79
2022/11/22 04:58:39;;;;;;;12.13;2.60;;;;;;;3.67;100.00;99249.53;4822817;29;21657;-79
2022/11/22 05:01:05;;;;;;;15.98;4.03;;;;;;;3.73;100.00;99242.44;4839889;29;20128;-78
2022/11/22 05:03:31;;;;;;;14.40;3.20;;;;;;;3.64;100.00;99249.59;4837929;29;20074;-78
2022/11/22 05:06:00;;;;;;;22.67;3.88;;;;;;;3.63;100.00;99242.63;4834156;29;20076;-79
2022/11/22 05:08:26;;;;;;;19.77;4.30;;;;;;;3.61;100.00;99252.28;4829766;29;20044;-78
2022/11/22 05:10:57;;;;;;;20.08;2.90;;;;;;;3.57;100.00;99254.97;4838011;29;20027;-78
2022/11/22 05:13:36;;;;;;;10.63;2.60;;;;;;;3.55;100.00;99252.38;4825837;29;20045;-79
2022/11/22 05:16:04;;;;;;;14.68;2.67;;;;;;;3.52;100.00;99257.69;4842374;29;20109;-78
2022/11/22 05:18:30;;;;;;;18.23;3.40;;;;;;;3.52;100.00;99256.81;4802643;29;20045;-78
2022/11/22 05:20:56;;;;;;;14.43;3.33;;;;;;;3.52;100.00;99256.81;4835805;29;20033;-78
2022/11/22 05:26:09;;;;;;;11.73;2.63;;;;;;;3.48;100.00;99274.31;4834534;29;20038;-78
2022/11/22 05:28:36;;;;;;;11.27;2.95;;;;;;;3.45;100.00;99264.78;4835927;29;20540;-78
2022/11/22 05:31:07;;;;;;;15.55;3.30;;;;;;;3.42;100.00;99258.75;4821955;29;20029;-78
2022/11/22 05:33:34;;;;;;;18.38;3.58;;;;;;;3.39;100.00;99264.03;4808724;29;20062;-78
2022/11/22 05:36:00;;;;;;;21.52;3.17;;;;;;;3.38;100.00;99259.69;4821143;29;20042;-78
2022/11/22 05:38:26;;;;;;;11.98;2.70;;;;;;;3.36;100.00;99259.72;4835408;29;20479;-79
2022/11/22 05:40:51;;;;;;;21.15;3.65;;;;;;;3.35;100.00;99260.59;4808842;29;20137;-78
2022/11/22 05:43:17;;;;;;;15.52;2.65;;;;;;;3.31;100.00;99251.06;4837854;29;20114;-78
2022/11/22 05:45:42;;;;;;;16.30;3.13;;;;;;;3.31;100.00;99260.69;4808606;29;20046;-79
2022/11/22 05:48:08;;;;;;;12.48;2.83;;;;;;;3.31;100.00;99258.06;4823873;29;20093;-79
2022/11/22 05:50:34;;;;;;;15.85;3.25;;;;;;;3.29;100.00;99259.84;4824881;29;20160;-79
2022/11/22 05:53:01;;;;;;;11.07;2.88;;;;;;;3.25;100.00;99247.72;4824966;29;20042;-79
2022/11/22 05:55:27;;;;;;;22.42;3.80;;;;;;;3.23;100.00;99263.44;4808829;29;20087;-79
2022/11/22 05:57:53;;;;;;;13.07;3.22;;;;;;;3.20;100.00;99253.03;4825098;29;20054;-78
2022/11/22 06:00:18;;;;;;;18.48;2.70;;;;;;;3.16;100.00;99252.19;4794784;29;20035;-79
2022/11/22 06:02:44;;;;;;;9.10;2.33;;;;;;;3.13;100.00;99247.03;4803896;29;20046;-78
2022/11/22 06:05:09;;;;;;;13.68;2.85;;;;;;;3.14;100.00;99258.34;4800352;29;20438;-79
2022/11/22 06:07:35;;;;;;;11.88;2.95;;;;;;;3.11;100.00;99255.78;4837011;29;20043;-79
2022/11/22 06:10:00;;;;;;;11.75;3.30;;;;;;;3.07;100.00;99251.53;4834935;29;20103;-85
2022/11/22 06:12:26;;;;;;;16.80;3.03;;;;;;;3.06;100.00;99266.31;4830670;29;20617;-84
2022/11/22 06:14:51;;;;;;;12.30;2.72;;;;;;;3.05;100.00;99267.22;4816388;29;20043;-84
2022/11/22 06:17:17;;;;;;;16.27;3.25;;;;;;;3.05;100.00;99262.00;4795151;29;20069;-84
2022/11/22 06:19:42;;;;;;;11.07;2.78;;;;;;;3.03;100.00;99262.91;4843576;29;20042;-84
2022/11/22 06:22:09;;;;;;;14.18;2.72;;;;;;;3.04;100.00;99259.41;4817796;29;20072;-85
2022/11/22 06:24:34;;;;;;;11.27;2.50;;;;;;;3.01;100.00;99255.09;4832185;29;20039;-84
2022/11/22 06:27:00;;;;;;;13.85;3.03;;;;;;;3.00;100.00;99255.97;4826476;29;20153;-84
2022/11/22 06:29:25;;;;;;;14.88;2.60;;;;;;;3.01;100.00;99255.94;4841011;29;20045;-84
2022/11/22 06:31:51;;;;;;;9.85;2.35;;;;;;;2.97;100.00;99269.97;4808218;29;20062;-84
2022/11/22 06:34:16;;;;;;;17.52;3.40;;;;;;;2.95;100.00;99266.50;4822969;29;20046;-84
2022/11/22 06:36:42;;;;;;;10.18;3.03;;;;;;;2.94;100.00;99267.41;4822340;29;20113;-84
2022/11/22 06:39:07;;;;;;;11.88;3.38;;;;;;;2.91;100.00;99262.22;4831559;29;20387;-84
2022/11/22 06:41:35;;;;;;;11.30;2.28;;;;;;;2.93;100.00;99273.50;4807826;29;20046;-84
2022/11/22 06:44:04;;;;;;;12.70;2.88;;;;;;;2.95;100.00;99270.88;4834888;29;20054;-84
2022/11/22 06:46:30;;;;;;;16.98;2.63;;;;;;;2.95;100.00;99268.28;4823913;29;20042;-84
2022/11/22 06:48:55;;;;;;;10.05;2.67;;;;;;;3.00;100.00;99288.22;4814919;29;20044;-83
2022/11/22 06:51:23;;;;;;;9.13;2.30;;;;;;;3.06;100.00;99284.63;4791288;29;20095;-84
2022/11/22 06:53:50;;;;;;;11.65;2.65;;;;;;;3.07;100.00;99285.53;4839318;29;20474;-84
2022/11/22 06:56:36;;;;;;;10.10;2.63;;;;;;;3.12;100.00;99286.31;4836115;29;20122;-84
2022/11/22 06:59:04;;;;;;;13.60;2.45;;;;;;;3.14;100.00;99292.34;4828289;29;20046;-84
2022/11/22 07:01:31;;;;;;;10.82;2.55;;;;;;;3.14;100.00;99293.25;4840245;29;20038;-84
2022/11/22 07:03:58;;;;;;;11.15;2.55;;;;;;;3.21;100.00;99288.75;4822367;29;20046;-84
2022/11/22 07:06:25;;;;;;;11.43;2.40;;;;;;;3.22;100.00;99301.81;4817352;29;20046;-84
2022/11/22 07:08:51;;;;;;;15.85;3.00;;;;;;;3.26;100.00;99309.59;4833818;29;20050;-84
2022/11/22 07:11:19;;;;;;;8.73;2.30;;;;;;;3.28;100.00;99311.31;4808626;29;20103;-84
2022/11/22 07:13:46;;;;;;;12.43;2.95;;;;;;;3.31;100.00;99313.00;4825149;29;20023;-84
2022/11/22 07:16:14;;;;;;;16.30;3.28;;;;;;;3.33;100.00;99304.25;4824991;29;20066;-84
2022/11/22 07:18:40;;;;;;;16.27;3.60;;;;;;;3.33;100.00;99301.63;4825093;29;20554;-84
2022/11/22 07:21:08;;;;;;;14.18;2.70;;;;;;;3.37;100.00;99302.44;4808906;29;20582;-85
2022/11/22 07:23:33;;;;;;;24.08;3.33;;;;;;;3.40;100.00;99302.38;4812667;29;20033;-84
2022/11/22 07:25:59;;;;;;;15.50;3.75;;;;;;;3.42;100.00;99304.09;4822949;29;20050;-84
2022/11/22 07:28:25;;;;;;;9.75;2.53;;;;;;;3.45;100.00;99313.63;4807550;29;20456;-85
2022/11/22 07:30:51;;;;;;;10.32;2.45;;;;;;;3.51;100.00;99304.81;4834103;29;20046;-83
2022/11/22 07:33:16;;;;;;;12.18;2.80;;;;;;;3.50;100.00;99311.81;4827536;29;20091;-85
2022/11/22 07:35:42;;;;;;;12.70;2.92;;;;;;;3.51;100.00;99302.19;4821820;29;20049;-85
2022/11/22 07:38:08;;;;;;;13.90;3.05;;;;;;;3.56;100.00;99316.06;4824700;29;20022;-84
2022/11/22 07:40:33;;;;;;;8.40;2.78;;;;;;;3.56;100.00;99314.31;4788244;29;20380;-84
2022/11/22 07:42:59;;;;;;;11.48;2.70;;;;;;;3.57;100.00;99309.94;4819711;29;20081;-84
2022/11/22 07:45:24;;;;;;;12.68;2.58;;;;;;;3.59;100.00;99311.66;4822845;29;20054;-84
2022/11/22 07:47:50;;;;;;;17.63;3.15;;;;;;;3.60;100.00;99315.97;4804534;29;20078;-84
2022/11/22 07:50:15;;;;;;;12.68;2.30;;;;;;;3.62;100.00;99308.97;4820523;29;20070;-84
2022/11/22 07:52:41;;;;;;;12.05;2.70;;;;;;;3.65;100.00;99314.13;4807879;29;20057;-84
2022/11/22 07:55:07;;;;;;;8.70;2.80;;;;;;;3.70;100.00;99315.81;4814191;29;20038;-85
2022/11/22 07:57:32;;;;;;;15.05;2.67;;;;;;;3.70;100.00;99314.06;4795817;29;20050;-85
2022/11/22 07:59:58;;;;;;;12.23;2.92;;;;;;;3.73;100.00;99313.13;4807897;29;20451;-85
2022/11/22 08:02:24;;;;;;;12.65;2.70;;;;;;;3.76;100.00;99315.69;4820351;29;20023;-84
2022/11/22 08:04:50;;;;;;;15.15;3.03;;;;;;;3.78;100.00;99309.53;4815283;29;20042;-84
2022/11/22 08:07:15;;;;;;;10.27;2.50;;;;;;;3.82;100.00;99316.44;4823934;29;20061;-86
2022/11/22 08:09:41;;;;;;;11.43;3.28;;;;;;;3.83;100.00;99320.81;4824064;29;20043;-84
2022/11/22 08:12:07;;;;;;;10.45;2.97;;;;;;;3.84;100.00;99311.19;4824018;29;20061;-85
2022/11/22 08:14:33;;;;;;;13.38;2.67;;;;;;;3.83;100.00;99306.84;4824126;29;20042;-84
2022/11/22 08:16:58;;;;;;;13.57;2.88;;;;;;;3.84;100.00;99314.69;4792367;29;20043;-84
2022/11/22 08:19:24;;;;;;;8.30;2.45;;;;;;;3.84;100.00;99312.06;4807781;29;20100;-84
2022/11/22 08:21:49;;;;;;;11.32;2.67;;;;;;;3.87;100.00;99322.47;4807480;29;20042;-84
2022/11/22 08:24:15;;;;;;;11.55;3.15;;;;;;;3.90;100.00;99320.69;4807702;29;20820;-84
2022/11/22 08:26:42;;;;;;;13.57;2.70;;;;;;;3.93;100.00;99318.00;4807545;29;20031;-84
2022/11/22 08:29:10;;;;;;;14.95;2.90;;;;;;;3.94;100.00;99307.50;4806944;29;20117;-84
2022/11/22 08:31:36;;;;;;;11.13;2.85;;;;;;;3.97;100.00;99315.28;4827014;29;20038;-84
2022/11/22 08:34:02;;;;;;;15.00;3.00;;;;;;;4.02;100.00;99313.44;4837199;29;20098;-84
2022/11/22 08:36:27;;;;;;;10.10;2.60;;;;;;;4.03;100.00;99316.91;4834016;29;20069;-83
2022/11/22 08:38:53;;;;;;;6.25;2.25;;;;;;;4.06;100.00;99320.38;4809760;29;20038;-83
2022/11/22 08:41:19;;;;;;;6.72;2.08;;;;;;;4.11;100.00;99319.41;4802049;29;20038;-83
2022/11/22 08:43:44;;;;;;;10.65;2.55;;;;;;;4.14;100.00;99327.22;4826494;29;20041;-83
2022/11/22 08:46:10;;;;;;;6.65;1.90;;;;;;;4.15;100.00;99335.03;4829420;29;20074;-83
2022/11/22 08:48:37;;;;;;;8.65;2.30;;;;;;;4.15;100.00;99339.41;4824976;29;20057;-83
2022/11/22 08:51:05;;;;;;;12.20;2.53;;;;;;;4.21;100.00;99332.28;4804340;29;20078;-83
2022/11/22 08:53:33;;;;;;;12.65;2.85;;;;;;;4.22;100.00;99328.75;4831656;29;20053;-83
2022/11/22 08:56:00;;;;;;;14.88;2.60;;;;;;;4.25;100.00;99320.88;4826750;29;20482;-83
2022/11/22 08:58:28;;;;;;;13.27;2.97;;;;;;;4.29;100.00;99319.03;4821400;29;20035;-84
2022/11/22 09:00:54;;;;;;;8.02;2.30;;;;;;;4.32;100.00;99313.72;4809410;29;20335;-83
2022/11/22 09:03:19;;;;;;;10.38;2.40;;;;;;;4.38;100.00;99320.63;4810348;29;20049;-84
2022/11/22 09:05:44;;;;;;;12.98;2.33;;;;;;;4.37;100.00;99324.97;4820299;29;20054;-83
2022/11/22 09:08:10;;;;;;;11.32;2.60;;;;;;;4.41;100.00;99325.78;4804685;29;20059;-83
2022/11/22 09:10:35;;;;;;;9.73;2.22;;;;;;;4.47;100.00;99333.50;4823352;29;20065;-83
2022/11/22 09:13:01;;;;;;;9.32;2.67;;;;;;;4.47;100.00;99344.84;4824244;29;20065;-83
2022/11/22 09:15:26;;;;;;;10.85;2.50;;;;;;;4.53;100.00;99341.25;4826923;29;20407;-84
2022/11/22 09:17:59;;;;;;;9.00;2.13;;;;;;;4.55;100.00;99342.09;4826725;29;20099;-83
2022/11/22 09:20:24;;;;;;;12.18;2.20;;;;;;;4.60;100.00;99355.97;4793529;29;20518;-83
2022/11/22 09:22:50;;;;;;;11.35;2.53;;;;;;;4.65;100.00;99347.97;4826395;29;20034;-84
2022/11/22 09:25:16;;;;;;;6.53;2.00;;;;;;;4.69;100.00;99347.00;4795294;29;20046;-83
2022/11/22 09:27:42;;;;;;;7.22;2.25;;;;;;;4.71;100.00;99338.22;4821587;29;20038;-83
2022/11/22 09:30:08;;;;;;;7.85;2.40;;;;;;;4.73;100.00;99336.44;4779039;29;20030;-84
2022/11/22 09:32:33;;;;;;;5.63;2.50;;;;;;;4.81;100.00;99346.75;4809272;29;20034;-83
2022/11/22 09:34:59;;;;;;;11.20;2.95;;;;;;;4.80;100.00;99342.41;4825835;29;20383;-83
2022/11/22 09:37:24;;;;;;;7.32;2.33;;;;;;;4.86;100.00;99347.50;4776446;29;20042;-84
2022/11/22 09:39:50;;;;;;;14.45;3.10;;;;;;;4.89;100.00;99343.94;4800646;29;20111;-83
2022/11/22 09:42:39;;;;;;;9.63;2.80;;;;;;;4.92;100.00;99342.13;4825009;29;20065;-83
2022/11/22 09:45:32;;;;;;;12.60;2.60;;;;;;;5.00;100.00;99341.09;4805986;29;20452;-84
2022/11/22 09:48:20;;;;;;;10.13;2.83;;;;;;;5.03;100.00;99341.88;4821918;29;20111;-83
2022/11/22 09:50:55;;;;;;;7.57;2.17;;;;;;;5.06;100.00;99341.78;4822010;29;20129;-84
2022/11/22 09:53:37;;;;;;;7.85;2.75;;;;;;;5.08;100.00;99336.53;4824856;29;20042;-84
2022/11/22 09:56:08;;;;;;;7.00;2.15;;;;;;;5.10;100.00;99338.22;4823995;29;20450;-83
2022/11/22 09:58:39;;;;;;;12.48;2.50;;;;;;;5.11;100.00;99334.69;4824959;29;20038;-84
2022/11/22 10:01:11;;;;;;;11.13;2.60;;;;;;;5.11;100.00;99339.94;4824999;29;20336;-83
2022/11/22 10:03:47;;;;;;;9.63;2.50;;;;;;;5.15;100.00;99344.22;4825049;29;20403;-84
2022/11/22 10:06:21;;;;;;;9.90;2.50;;;;;;;5.21;100.00;99350.22;4808577;29;20053;-84
2022/11/22 10:09:26;;;;;;;4.93;2.03;;;;;;;5.19;100.00;99345.00;4824945;29;20435;-84
2022/11/22 10:12:32;;;;;;;8.75;2.25;;;;;;;5.27;100.00;99361.44;4814126;29;20042;-84
2022/11/22 10:15:25;;;;;;;14.13;5.18;;;;;;;5.30;99.35;99350.84;4824793;29;20022;-85
2022/11/22 10:17:54;;;;;;;3.70;2.13;;;;;;;5.28;99.43;99350.03;4824358;29;20305;-84
2022/11/22 10:20:34;;;;;;;6.13;2.10;;;;;;;5.33;99.05;99350.78;4824881;29;20453;-84
2022/11/22 10:23:01;;;;;;;8.85;2.28;;;;;;;5.35;99.27;99348.97;4808415;29;20046;-85
2022/11/22 10:25:41;;;;;;;4.65;1.77;;;;;;;5.35;98.89;99348.97;4824756;29;20084;-85
2022/11/22 10:28:21;;;;;;;6.22;2.05;;;;;;;5.36;99.39;99327.06;4824623;29;20045;-85
2022/11/22 10:31:13;;;;;;;5.78;1.83;;;;;;;5.46;99.67;99338.19;4808325;29;20395;-85
2022/11/22 10:33:44;;;;;;;5.25;2.00;;;;;;;5.49;99.93;99334.63;4796458;29;20042;-85
2022/11/22 10:36:28;;;;;;;;;;;;;;;5.54;99.90;99327.53;4825209;29;20049;-85
2022/11/22 10:39:45;;;;;;;4.45;1.70;;;;;;;5.52;99.53;99324.94;4824501;29;20445;-84
2022/11/22 10:42:25;;;;;;;6.85;1.77;;;;;;;5.54;99.09;99330.16;4770958;29;20054;-84
2022/11/22 10:45:28;;;;;;;2.95;1.63;;;;;;;5.57;99.63;99322.19;4824566;29;20038;-85
2022/11/22 10:47:53;;;;;;;7.35;2.03;;;;;;;5.59;99.19;99326.50;4821715;29;20387;-81
2022/11/22 10:50:21;;;;;;;5.05;1.73;;;;;;;5.63;98.52;99324.66;4823920;29;20059;-80
2022/11/22 10:53:11;;;;;;;7.15;1.92;;;;;;;5.62;98.83;99332.59;4807845;29;20046;-80
2022/11/22 10:55:54;;;;;;;9.43;2.20;;;;;;;5.62;98.69;99332.59;4807941;29;20092;-79
2022/11/22 10:58:46;;;;;;;5.88;2.35;;;;;;;5.58;99.20;99327.38;4820476;29;20084;-80
2022/11/22 11:02:00;;;;;;;4.88;2.00;;;;;;;5.64;99.90;99321.13;4821204;29;20034;-81
2022/11/22 11:04:37;;;;;;;5.80;2.25;;;;;;;5.70;99.52;99317.47;4774084;29;20091;-81
2022/11/22 11:07:05;;;;;;;6.90;2.13;;;;;;;5.70;98.67;99313.09;4799692;29;20038;-80
2022/11/22 11:09:42;;;;;;;6.10;2.00;;;;;;;5.75;98.74;99312.97;4789583;29;20034;-80
2022/11/22 11:12:34;;;;;;;5.85;1.80;;;;;;;5.81;98.30;99310.16;4818280;29;20049;-80
2022/11/22 11:15:05;;;;;;;4.40;1.90;;;;;;;5.79;97.93;99297.09;4817786;29;20046;-80
2022/11/22 11:17:35;;;;;;;3.15;1.55;;;;;;;5.84;98.14;99304.84;4818494;29;20041;-81
2022/11/22 11:20:09;;;;;;;5.00;1.97;;;;;;;5.84;96.91;99291.72;4790860;29;20057;-80
2022/11/22 11:22:35;;;;;;;5.90;1.88;;;;;;;5.92;97.25;99294.13;4824196;29;20050;-80
2022/11/22 11:25:31;;;;;;;6.40;1.80;;;;;;;5.95;96.21;99289.66;4786170;29;20031;-80
2022/11/22 11:28:01;;;;;;;7.95;2.38;;;;;;;5.94;97.06;99285.31;4818392;29;20034;-81
2022/11/22 11:30:27;;;;;;;4.22;1.95;;;;;;;5.94;96.95;99274.81;4822281;29;20050;-81
2022/11/22 11:32:55;;;;;;;5.13;2.28;;;;;;;5.96;96.26;99283.53;4806781;29;20487;-80
2022/11/22 11:35:25;;;;;;;17.33;8.23;;;;;;;5.96;95.40;99283.53;4817894;29;20129;-81
2022/11/22 11:37:50;;;;;;;13.00;6.72;;;;;;;5.96;96.61;99280.91;4807737;29;20038;-81
2022/11/22 11:40:42;;;;;;;8.20;4.07;;;;;;;6.01;96.80;99279.00;4792700;29;20554;-80
2022/11/22 11:43:15;;;;;;;8.85;5.50;;;;;;;6.04;95.84;99280.69;4817062;29;20149;-81
2022/11/22 11:45:41;;;;;;;5.78;2.30;;;;;;;6.05;96.34;99287.66;4806016;29;20410;-80
2022/11/22 11:48:27;;;;;;;4.90;1.55;;;;;;;6.09;95.60;99283.19;4822232;29;20038;-81
2022/11/22 11:51:05;;;;;;;6.18;1.80;;;;;;;6.08;95.65;99284.06;4811062;29;20054;-81